Time;durP1;ratioP1;P1;durP2;ratioP2;P2;SDS_P1;SDS_P2;PMS_P1;PMS_P2;Temp;Humidity;BMP_temperature;BMP_pressure;BME280_temperature;BME280_humidity;BME280_pressure;Samples;Min_cycle;Max_cycle;Signal;HPM_P1;HPM_P2
2023/01/13 00:01:08;;;;;;;2.75;1.05;;;;;;;20.68;42.36;99997.94;5038053;28;20773;-81
2023/01/13 00:03:34;;;;;;;3.70;1.45;;;;;;;20.70;42.05;99995.91;5041693;28;20036;-81
2023/01/13 00:06:00;;;;;;;2.20;1.23;;;;;;;20.66;42.25;99994.69;5042263;28;20040;-81
2023/01/13 00:08:25;;;;;;;4.88;1.80;;;;;;;20.64;42.46;99993.25;5036104;28;20688;-81
2023/01/13 00:10:51;;;;;;;3.83;1.55;;;;;;;20.60;42.12;99976.97;5034953;28;20029;-81
2023/01/13 00:13:25;;;;;;;2.55;1.38;;;;;;;20.71;42.09;99986.16;5035246;28;20048;-82
2023/01/13 00:16:04;;;;;;;3.17;1.25;;;;;;;20.67;42.26;99998.16;5031408;28;21422;-81
2023/01/13 00:18:31;;;;;;;7.85;2.00;;;;;;;20.64;42.13;99975.53;5033717;28;20488;-81
2023/01/13 00:21:01;;;;;;;4.65;1.40;;;;;;;20.63;42.21;99994.28;5039887;28;20387;-81
2023/01/13 00:23:27;;;;;;;;;;;;;;;20.61;42.33;99988.38;5036374;28;20176;-81
2023/01/13 00:25:57;;;;;;;3.15;1.50;;;;;;;20.54;42.37;99991.03;5034545;28;20509;-80
2023/01/13 00:28:23;;;;;;;2.97;1.63;;;;;;;20.60;42.46;99992.03;5033918;28;20520;-80
2023/01/13 00:30:49;;;;;;;3.95;1.48;;;;;;;20.52;42.18;99999.19;5034659;28;20163;-80
2023/01/13 00:33:14;;;;;;;4.35;1.77;;;;;;;20.62;42.14;99993.47;5034136;28;20195;-80
2023/01/13 00:35:40;;;;;;;3.90;1.90;;;;;;;20.65;41.99;100001.00;5035791;28;20056;-80
2023/01/13 00:38:05;;;;;;;4.85;1.50;;;;;;;20.55;42.35;100003.25;5044705;28;20399;-80
2023/01/13 00:40:31;;;;;;;4.72;1.83;;;;;;;20.61;42.10;99998.97;5033137;28;20033;-80
2023/01/13 00:45:40;;;;;;;5.10;1.92;;;;;;;20.59;42.14;99988.59;5035077;28;20055;-80
2023/01/13 00:48:06;;;;;;;4.60;1.55;;;;;;;20.58;42.24;99984.31;5035224;28;20048;-80
2023/01/13 00:50:31;;;;;;;3.92;1.58;;;;;;;20.49;42.31;99972.34;5042836;28;20397;-79
2023/01/13 00:53:00;;;;;;;7.78;2.17;;;;;;;20.58;42.17;99984.31;5042647;28;20036;-79
2023/01/13 00:55:29;;;;;;;5.47;2.15;;;;;;;20.57;42.22;99998.56;5041643;28;20529;-79
2023/01/13 00:57:55;;;;;;;4.65;1.60;;;;;;;20.62;42.23;99995.28;5036306;28;20119;-80
2023/01/13 01:00:20;;;;;;;4.57;1.48;;;;;;;20.56;42.08;100006.69;5033500;28;20072;-79
2023/01/13 01:02:46;;;;;;;5.45;1.70;;;;;;;20.49;42.04;99983.72;5028867;28;20046;-79
2023/01/13 01:05:11;;;;;;;6.07;2.15;;;;;;;20.54;42.16;99990.22;5032905;28;20040;-79
2023/01/13 01:07:37;;;;;;;7.10;1.88;;;;;;;20.46;42.27;99992.03;5035181;28;20036;-79
2023/01/13 01:10:03;;;;;;;4.80;1.42;;;;;;;20.58;42.24;99975.56;5036715;28;20128;-81
2023/01/13 01:12:28;;;;;;;6.97;2.42;;;;;;;20.55;41.90;99968.84;5040501;28;20392;-80
2023/01/13 01:14:54;;;;;;;5.15;2.20;;;;;;;20.55;42.09;99983.91;5030848;28;20055;-80
2023/01/13 01:17:19;;;;;;;4.78;1.77;;;;;;;20.51;42.17;99978.22;5036635;28;20028;-82
2023/01/13 01:19:45;;;;;;;4.47;1.90;;;;;;;20.52;42.21;99982.50;5031471;28;20055;-80
2023/01/13 01:22:10;;;;;;;6.03;1.90;;;;;;;20.54;42.20;99992.88;5035421;28;20100;-79
2023/01/13 01:24:36;;;;;;;6.10;1.90;;;;;;;20.47;42.20;99977.00;5037578;28;20041;-79
2023/01/13 01:27:01;;;;;;;6.50;2.08;;;;;;;20.48;42.21;99976.81;5039582;28;20117;-79
2023/01/13 01:29:27;;;;;;;3.75;1.40;;;;;;;20.52;42.04;99972.72;5035172;28;20760;-80
2023/01/13 01:31:52;;;;;;;7.45;2.10;;;;;;;20.55;41.99;99984.72;5034125;28;20123;-79
2023/01/13 01:34:18;;;;;;;6.75;2.33;;;;;;;20.61;42.05;99998.97;5037861;28;20044;-79
2023/01/13 01:36:44;;;;;;;6.75;2.40;;;;;;;20.46;42.28;100007.91;5035418;28;20028;-80
2023/01/13 01:39:09;;;;;;;7.13;1.80;;;;;;;20.46;42.10;100002.63;5036246;28;20099;-79
2023/01/13 01:41:35;;;;;;;4.70;2.17;;;;;;;20.61;41.78;99998.97;5034832;28;20049;-79
2023/01/13 01:44:05;;;;;;;5.90;2.22;;;;;;;20.59;42.11;100006.28;5037169;28;20412;-81
2023/01/13 01:46:37;;;;;;;4.75;1.90;;;;;;;20.51;42.18;99989.63;5037600;28;20033;-81
2023/01/13 01:49:02;;;;;;;6.55;1.98;;;;;;;20.47;42.28;99988.41;5033702;28;20087;-81
2023/01/13 01:51:32;;;;;;;5.65;2.35;;;;;;;20.57;42.03;99993.28;5040461;28;20028;-82
2023/01/13 01:54:03;;;;;;;5.78;2.13;;;;;;;20.52;41.93;100001.81;5025900;28;20037;-83
2023/01/13 01:56:29;;;;;;;6.22;2.17;;;;;;;20.58;41.95;100004.66;5033410;28;20033;-82
2023/01/13 01:58:55;;;;;;;5.07;1.95;;;;;;;20.59;41.71;99993.88;5038700;28;20041;-82
2023/01/13 02:01:21;;;;;;;5.00;1.73;;;;;;;20.55;41.78;99997.94;5043573;28;20047;-79
2023/01/13 02:03:58;;;;;;;5.28;1.88;;;;;;;20.52;42.02;99990.44;5042403;28;20098;-82
2023/01/13 02:06:24;;;;;;;5.82;2.45;;;;;;;20.49;42.02;99994.31;5040552;28;20156;-81
2023/01/13 02:08:50;;;;;;;7.47;2.95;;;;;;;20.55;41.77;99989.22;5034992;28;20166;-79
2023/01/13 02:12:28;;;;;;;8.48;2.50;;;;;;;20.43;42.04;99984.53;5031066;28;20135;-81
2023/01/13 02:14:12;;;;;;;6.97;2.13;;;;;;;20.49;42.11;99985.56;5038706;28;20734;-82
2023/01/13 02:16:42;;;;;;;6.93;2.55;;;;;;;20.43;42.09;99978.41;5039443;28;20036;-81
2023/01/13 02:19:22;;;;;;;5.47;2.25;;;;;;;20.45;42.04;99997.53;5041193;28;20478;-82
2023/01/13 02:22:11;;;;;;;4.88;2.20;;;;;;;20.47;41.98;99995.53;5040562;28;20049;-81
2023/01/13 02:25:02;;;;;;;5.57;1.98;;;;;;;20.42;41.92;99990.00;5035011;28;20635;-81
2023/01/13 02:27:46;;;;;;;5.25;2.00;;;;;;;20.47;41.94;99991.06;5032878;28;20092;-82
2023/01/13 02:33:27;;;;;;;10.52;2.33;;;;;;;20.44;42.00;99985.34;5032889;28;20045;-81
2023/01/13 02:36:12;;;;;;;7.80;2.40;;;;;;;20.44;41.98;99985.34;5041942;28;20068;-82
2023/01/13 02:38:50;;;;;;;6.75;2.40;;;;;;;20.39;42.08;99963.94;5038687;28;20040;-81
2023/01/13 02:44:30;;;;;;;5.00;2.42;;;;;;;20.42;41.88;99974.97;5039443;28;20052;-81
2023/01/13 02:47:19;;;;;;;5.88;2.08;;;;;;;20.42;41.78;99953.00;5035764;28;20407;-82
2023/01/13 02:49:59;;;;;;;7.85;2.25;;;;;;;20.38;42.09;99955.19;5033283;28;20044;-82
2023/01/13 02:52:31;;;;;;;8.60;2.55;;;;;;;20.42;42.03;99963.56;5037958;28;20037;-81
2023/01/13 02:55:04;;;;;;;6.30;2.05;;;;;;;20.39;41.93;99937.50;5034326;28;20495;-81
2023/01/13 02:57:32;;;;;;;7.32;2.67;;;;;;;20.39;41.88;99953.38;5035470;28;20025;-82
2023/01/13 02:59:59;;;;;;;7.53;2.17;;;;;;;20.33;42.02;99951.56;5036922;28;20045;-81
2023/01/13 03:02:25;;;;;;;6.55;2.35;;;;;;;20.33;42.06;99941.78;5042973;28;20047;-81
2023/01/13 03:04:56;;;;;;;5.97;2.05;;;;;;;20.40;41.90;99929.38;5038206;28;20026;-80
2023/01/13 03:07:42;;;;;;;8.10;2.70;;;;;;;20.37;41.83;99932.44;5036052;28;20029;-80
2023/01/13 03:10:30;;;;;;;5.70;2.42;;;;;;;20.39;41.84;99945.44;5042757;28;20477;-80
2023/01/13 03:13:09;;;;;;;10.25;2.42;;;;;;;20.36;41.78;99945.84;5038183;28;20108;-80
2023/01/13 03:15:46;;;;;;;4.97;1.88;;;;;;;20.39;41.83;99937.50;5040343;28;20032;-81
2023/01/13 03:18:36;;;;;;;6.45;2.50;;;;;;;20.27;41.96;99924.09;5034252;28;20043;-80
2023/01/13 03:21:10;;;;;;;6.18;2.42;;;;;;;20.36;41.97;99920.22;5025611;28;20525;-80
2023/01/13 03:23:49;;;;;;;7.18;2.53;;;;;;;20.30;42.04;99928.16;5038267;28;20046;-80
2023/01/13 03:26:27;;;;;;;9.18;2.80;;;;;;;20.38;42.04;99920.03;5035754;28;20040;-80
2023/01/13 03:29:07;;;;;;;8.90;2.40;;;;;;;20.33;41.76;99918.00;5037739;28;20605;-81
2023/01/13 03:31:39;;;;;;;6.22;2.30;;;;;;;20.30;42.00;99907.03;5036549;28;20078;-80
2023/01/13 03:34:12;;;;;;;9.25;2.97;;;;;;;20.25;42.01;99904.97;5031070;28;20049;-80
2023/01/13 03:36:39;;;;;;;8.23;2.45;;;;;;;20.28;41.93;99907.19;5032864;28;20059;-81
2023/01/13 03:39:14;;;;;;;6.35;2.55;;;;;;;20.30;41.83;99920.25;5037890;28;20037;-81
2023/01/13 03:41:56;;;;;;;5.30;2.55;;;;;;;20.33;41.91;99922.47;5034609;28;20033;-81
2023/01/13 03:44:38;;;;;;;7.97;2.65;;;;;;;20.27;41.86;99926.72;5032101;28;20037;-81
2023/01/13 03:47:20;;;;;;;7.03;2.53;;;;;;;20.33;41.97;99925.13;5038770;28;20466;-81
2023/01/13 03:49:52;;;;;;;6.22;2.58;;;;;;;20.30;41.91;99926.34;5039210;28;20499;-82
2023/01/13 03:52:24;;;;;;;7.90;2.25;;;;;;;20.26;42.04;99924.28;5031523;28;20037;-81
2023/01/13 03:55:12;;;;;;;7.43;2.58;;;;;;;20.37;41.74;99927.13;5031285;28;20110;-81
2023/01/13 03:58:00;;;;;;;5.28;2.42;;;;;;;20.36;41.66;99930.00;5042805;28;20067;-82
2023/01/13 04:00:32;;;;;;;7.25;2.92;;;;;;;20.32;41.85;99926.13;5011911;28;20792;-81
2023/01/13 04:03:08;;;;;;;8.88;2.78;;;;;;;20.27;41.94;99904.75;5038760;28;20040;-82
2023/01/13 04:05:40;;;;;;;6.18;2.75;;;;;;;20.27;41.75;99904.75;5037541;28;20953;-81
2023/01/13 04:08:15;;;;;;;5.50;2.00;;;;;;;20.21;41.87;99894.00;5033820;28;20130;-81
2023/01/13 04:10:51;;;;;;;5.45;2.17;;;;;;;20.33;41.82;99896.03;5036182;28;20064;-81
2023/01/13 04:13:20;;;;;;;7.03;2.20;;;;;;;20.23;42.05;99907.00;5036151;28;20785;-81
2023/01/13 04:15:48;;;;;;;6.47;2.40;;;;;;;20.36;41.64;99899.06;5032188;28;20041;-81
2023/01/13 04:18:15;;;;;;;6.88;2.58;;;;;;;20.27;41.96;99891.53;5035473;28;20037;-82
2023/01/13 04:20:43;;;;;;;7.03;2.33;;;;;;;20.36;41.78;99896.44;5037703;28;20115;-81
2023/01/13 04:23:09;;;;;;;7.78;2.47;;;;;;;20.31;41.83;99901.53;5036331;28;20527;-82
2023/01/13 04:25:35;;;;;;;6.53;2.40;;;;;;;20.29;41.80;99889.50;5033949;28;20043;-81
2023/01/13 04:28:00;;;;;;;5.15;2.15;;;;;;;20.29;42.00;99887.69;5035550;28;20041;-81
2023/01/13 04:30:26;;;;;;;5.50;2.10;;;;;;;20.25;41.96;99883.81;5036115;28;20044;-81
2023/01/13 04:32:51;;;;;;;6.05;2.10;;;;;;;20.31;41.78;99888.31;5033801;28;20427;-80
2023/01/13 04:35:17;;;;;;;8.27;2.67;;;;;;;20.25;41.94;99894.41;5040303;28;20642;-82
2023/01/13 04:37:42;;;;;;;7.00;2.13;;;;;;;20.33;41.79;99890.75;5046001;28;20115;-82
2023/01/13 04:40:08;;;;;;;7.68;2.53;;;;;;;20.30;41.78;99891.16;5035905;28;20040;-81
2023/01/13 04:42:34;;;;;;;7.07;2.78;;;;;;;20.23;41.95;99902.53;5038029;28;20142;-81
2023/01/13 04:44:59;;;;;;;5.47;2.60;;;;;;;20.25;41.89;99888.28;5037803;28;20049;-80
2023/01/13 04:47:25;;;;;;;8.32;2.75;;;;;;;20.22;41.87;99889.53;5040766;28;20096;-79
2023/01/13 04:49:50;;;;;;;8.77;2.60;;;;;;;20.23;42.15;99901.72;5032547;28;20049;-79
2023/01/13 04:52:16;;;;;;;7.68;2.47;;;;;;;20.20;41.79;99895.03;5039373;28;20584;-79
2023/01/13 04:54:41;;;;;;;7.85;2.45;;;;;;;20.30;41.73;99902.53;5039262;28;20032;-79
2023/01/13 04:57:07;;;;;;;7.85;2.85;;;;;;;20.28;41.72;99898.47;5021773;28;20444;-80
2023/01/13 04:59:32;;;;;;;9.70;2.53;;;;;;;20.24;41.85;99900.69;5035786;28;20036;-79
2023/01/13 05:01:58;;;;;;;8.60;3.28;;;;;;;20.22;41.87;99900.91;5029275;28;20487;-79
2023/01/13 05:04:23;;;;;;;6.63;2.25;;;;;;;20.13;42.05;99893.41;5039432;28;20049;-79
2023/01/13 05:06:49;;;;;;;6.03;2.60;;;;;;;20.17;42.01;99886.69;5037475;28;20029;-79
2023/01/13 05:09:14;;;;;;;6.70;2.55;;;;;;;20.17;41.99;99874.28;5037765;28;20102;-79
2023/01/13 05:17:19;;;;;;;4.10;2.13;;;;;;;20.11;42.06;99877.75;5037657;28;20076;-79
2023/01/13 05:19:45;;;;;;;8.80;2.72;;;;;;;20.14;41.86;99872.06;5034854;28;20380;-79
2023/01/13 05:27:38;;;;;;;7.45;2.10;;;;;;;20.17;41.93;99871.63;5034271;28;20049;-80
2023/01/13 05:30:05;;;;;;;6.40;2.30;;;;;;;20.25;41.63;99878.53;5046954;28;20040;-79
2023/01/13 05:32:31;;;;;;;7.40;2.53;;;;;;;20.12;41.92;99863.53;5038218;28;20032;-81
2023/01/13 05:34:56;;;;;;;5.78;2.08;;;;;;;20.12;41.75;99874.09;5037961;28;20079;-82
2023/01/13 05:37:23;;;;;;;7.00;2.33;;;;;;;20.11;41.85;99869.00;5038810;28;20063;-79
2023/01/13 05:45:17;;;;;;;7.03;2.40;;;;;;;20.11;41.71;99859.25;5038050;28;20191;-82
2023/01/13 05:47:42;;;;;;;6.75;2.30;;;;;;;20.18;41.85;99870.63;5040646;28;20049;-81
2023/01/13 05:50:09;;;;;;;6.68;2.30;;;;;;;20.16;41.77;99869.19;5046166;28;20041;-81
2023/01/13 05:52:34;;;;;;;9.70;2.75;;;;;;;20.21;41.74;99883.41;5034597;28;20161;-81
2023/01/13 05:55:00;;;;;;;8.32;2.50;;;;;;;20.04;41.86;99865.53;5036230;28;20040;-81
2023/01/13 05:57:25;;;;;;;6.70;2.10;;;;;;;20.14;41.69;99873.88;5033967;28;20069;-81
2023/01/13 05:59:51;;;;;;;6.32;2.40;;;;;;;20.21;41.60;99880.78;5035431;28;20040;-81
2023/01/13 06:02:16;;;;;;;10.05;2.60;;;;;;;20.17;41.70;99874.28;5035763;28;20032;-81
2023/01/13 06:04:42;;;;;;;7.10;2.50;;;;;;;20.08;41.88;99875.50;5040019;28;20040;-81
2023/01/13 06:07:07;;;;;;;7.47;2.75;;;;;;;20.10;41.85;99880.56;5037234;28;20106;-81
2023/01/13 06:09:33;;;;;;;7.45;2.47;;;;;;;20.11;41.82;99867.19;5040186;28;20094;-81
2023/01/13 06:11:59;;;;;;;6.93;2.85;;;;;;;20.13;41.76;99882.84;5036706;28;20541;-81
2023/01/13 06:14:24;;;;;;;6.50;2.90;;;;;;;20.07;41.96;99873.88;5040072;28;20045;-81
2023/01/13 06:16:50;;;;;;;6.25;2.35;;;;;;;20.09;41.82;99865.72;5038610;28;20063;-81
2023/01/13 06:19:15;;;;;;;7.10;2.80;;;;;;;20.09;41.66;99874.47;5034842;28;20320;-82
2023/01/13 06:21:43;;;;;;;7.20;2.35;;;;;;;20.10;41.85;99872.66;5038155;28;20052;-82
2023/01/13 06:24:09;;;;;;;8.05;2.83;;;;;;;20.12;41.71;99871.44;5036819;28;20094;-82
2023/01/13 06:26:38;;;;;;;6.32;2.30;;;;;;;20.01;41.75;99872.06;5039111;28;20483;-81
2023/01/13 06:29:04;;;;;;;5.97;2.50;;;;;;;20.05;41.64;99872.44;5038365;28;20510;-81
2023/01/13 06:31:31;;;;;;;10.57;2.72;;;;;;;20.08;41.79;99872.03;5043550;28;20037;-81
2023/01/13 06:34:12;;;;;;;6.78;2.45;;;;;;;20.10;41.85;99876.09;5035798;28;20068;-81
2023/01/13 06:36:44;;;;;;;6.45;2.78;;;;;;;20.09;41.71;99871.84;5036060;28;20044;-79
2023/01/13 06:39:14;;;;;;;5.10;2.00;;;;;;;20.07;41.79;99876.50;5035265;28;20041;-82
2023/01/13 06:44:24;;;;;;;7.65;2.63;;;;;;;20.09;41.82;99871.03;5040477;28;20408;-80
2023/01/13 06:46:50;;;;;;;6.50;2.25;;;;;;;20.08;41.74;99864.09;5038780;28;20052;-81
2023/01/13 06:49:16;;;;;;;7.90;2.22;;;;;;;20.09;41.81;99866.53;5036972;28;20044;-80
2023/01/13 06:51:41;;;;;;;7.18;2.67;;;;;;;20.07;41.92;99876.50;5036001;28;20091;-81
2023/01/13 06:54:07;;;;;;;7.03;2.42;;;;;;;20.09;41.73;99865.72;5039003;28;20055;-81
2023/01/13 06:56:33;;;;;;;5.80;2.15;;;;;;;20.14;41.71;99860.66;5036378;28;20033;-80
2023/01/13 06:58:59;;;;;;;7.70;2.22;;;;;;;20.10;41.75;99860.25;5035037;28;20078;-81
2023/01/13 07:01:24;;;;;;;8.95;2.75;;;;;;;20.11;41.74;99869.81;5032231;28;20549;-80
2023/01/13 07:03:50;;;;;;;6.88;2.53;;;;;;;20.15;41.67;99870.22;5033955;28;20025;-81
2023/01/13 07:06:16;;;;;;;4.55;2.40;;;;;;;20.09;41.96;99871.03;5036462;28;20040;-80
2023/01/13 07:08:41;;;;;;;6.75;2.85;;;;;;;20.18;41.62;99867.97;5044573;28;20086;-81
2023/01/13 07:11:07;;;;;;;5.80;2.33;;;;;;;20.14;41.84;99866.78;5043798;28;20044;-81
2023/01/13 07:16:20;;;;;;;5.80;2.30;;;;;;;20.12;41.62;99871.44;5038209;28;20879;-81
2023/01/13 07:18:46;;;;;;;5.78;2.20;;;;;;;20.12;41.74;99868.00;5032229;28;20040;-80
2023/01/13 07:21:12;;;;;;;8.27;1.92;;;;;;;20.49;41.07;99875.28;5034613;28;20041;-81
2023/01/13 07:23:39;;;;;;;4.30;1.75;;;;;;;21.85;38.33;99876.88;5034032;28;20060;-81
2023/01/13 07:26:07;;;;;;;6.55;1.88;;;;;;;22.24;37.83;99883.72;5037119;28;20041;-81
2023/01/13 07:28:33;;;;;;;6.07;2.38;;;;;;;22.31;37.50;99877.34;5034676;28;20052;-81
2023/01/13 07:30:59;;;;;;;7.10;2.20;;;;;;;22.28;37.63;99891.06;5037750;28;20055;-81
2023/01/13 07:33:25;;;;;;;3.90;1.90;;;;;;;22.24;37.68;99899.63;5035435;28;20056;-81
2023/01/13 07:36:02;;;;;;;4.45;1.88;;;;;;;22.14;37.97;99897.50;5035101;28;20703;-81
2023/01/13 07:38:29;;;;;;;7.65;2.35;;;;;;;22.09;38.02;99893.88;5037522;28;20632;-81
2023/01/13 07:40:55;;;;;;;4.82;1.73;;;;;;;22.10;38.39;99909.56;5030189;28;20055;-81
2023/01/13 07:43:32;;;;;;;7.10;2.35;;;;;;;22.00;38.45;99904.72;5033771;28;20041;-80
2023/01/13 07:46:03;;;;;;;4.85;2.10;;;;;;;22.01;38.42;99908.16;5030751;28;21255;-81
2023/01/13 07:48:30;;;;;;;6.70;2.42;;;;;;;21.95;38.33;99901.09;5035054;28;20487;-81
2023/01/13 07:51:01;;;;;;;7.22;2.05;;;;;;;21.86;38.41;99900.53;5033608;28;20088;-81
2023/01/13 07:53:26;;;;;;;4.95;1.95;;;;;;;21.90;38.63;99911.50;5027921;28;20033;-81
2023/01/13 07:55:56;;;;;;;4.05;1.92;;;;;;;21.74;38.86;99907.56;5035791;28;20079;-81
2023/01/13 07:58:23;;;;;;;4.60;2.08;;;;;;;21.70;39.03;99911.66;5033757;28;20687;-81
2023/01/13 08:00:48;;;;;;;5.43;1.80;;;;;;;21.54;39.43;99907.66;5029690;28;20132;-82
2023/01/13 08:03:14;;;;;;;6.03;2.40;;;;;;;21.44;39.54;99909.97;5035871;28;20149;-81
2023/01/13 08:05:40;;;;;;;5.25;2.38;;;;;;;21.28;39.89;99919.22;5037412;28;20036;-81
2023/01/13 08:08:06;;;;;;;4.38;2.08;;;;;;;21.23;40.08;99916.38;5041108;28;20091;-81
2023/01/13 08:10:31;;;;;;;8.02;2.38;;;;;;;21.16;40.01;99898.88;5043330;28;20052;-80
2023/01/13 08:15:41;;;;;;;6.45;2.30;;;;;;;21.04;40.38;99909.31;5031908;28;20553;-81
2023/01/13 08:18:06;;;;;;;5.80;2.60;;;;;;;20.99;40.65;99917.88;5032595;28;20041;-81
2023/01/13 08:20:32;;;;;;;5.63;2.28;;;;;;;21.00;40.55;99910.75;5035698;28;20038;-81
2023/01/13 08:22:58;;;;;;;6.82;1.90;;;;;;;21.01;40.38;99917.69;5037438;28;20629;-81
2023/01/13 08:25:25;;;;;;;4.38;1.95;;;;;;;20.89;40.69;99919.34;5036278;28;20400;-81
2023/01/13 08:27:51;;;;;;;4.43;1.50;;;;;;;20.81;40.76;99917.72;5034486;28;20047;-81
2023/01/13 08:30:17;;;;;;;7.38;1.77;;;;;;;20.81;40.80;99918.53;5033953;28;20053;-81
2023/01/13 08:32:43;;;;;;;3.88;1.90;;;;;;;20.80;40.76;99926.69;5034378;28;20037;-81
2023/01/13 08:35:09;;;;;;;5.32;2.30;;;;;;;20.76;40.85;99913.06;5030608;28;20089;-80
2023/01/13 08:37:34;;;;;;;4.38;1.67;;;;;;;20.83;40.81;99923.66;5033269;28;20030;-80
2023/01/13 08:40:00;;;;;;;4.05;1.50;;;;;;;20.77;40.81;99916.53;5038478;28;20040;-80
2023/01/13 08:42:26;;;;;;;6.20;2.25;;;;;;;20.80;40.82;99913.44;5035388;28;20040;-79
2023/01/13 08:44:53;;;;;;;8.70;2.33;;;;;;;20.83;40.73;99914.91;5039778;28;20086;-79
2023/01/13 08:47:18;;;;;;;8.80;2.30;;;;;;;20.76;40.74;99928.94;5037699;28;20048;-79
2023/01/13 08:49:44;;;;;;;6.80;2.22;;;;;;;20.70;41.07;99935.06;5046724;28;21600;-78
2023/01/13 08:52:10;;;;;;;6.38;2.42;;;;;;;20.70;40.83;99945.66;5040382;28;20044;-79
2023/01/13 08:54:37;;;;;;;5.80;2.35;;;;;;;20.87;40.48;99930.13;5041541;28;20125;-78
2023/01/13 08:57:03;;;;;;;4.90;1.92;;;;;;;21.68;38.98;99945.50;5034093;28;20104;-79
2023/01/13 08:59:29;;;;;;;5.25;2.03;;;;;;;21.99;38.45;99931.44;5042372;28;20045;-77
2023/01/13 09:01:54;;;;;;;4.72;2.05;;;;;;;22.05;38.25;99945.69;5037520;28;20028;-75
2023/01/13 09:04:22;;;;;;;5.05;2.13;;;;;;;21.94;38.35;99934.75;5037240;28;21693;-78
2023/01/13 09:06:49;;;;;;;3.65;1.83;;;;;;;21.96;38.32;99940.63;5050221;28;20048;-79
2023/01/13 09:09:15;;;;;;;4.65;1.95;;;;;;;21.92;38.62;99957.19;5044870;28;20040;-78
2023/01/13 09:14:30;;;;;;;5.65;1.88;;;;;;;21.76;38.69;99957.69;5053770;28;20775;-79
2023/01/13 09:16:56;;;;;;;4.05;2.00;;;;;;;21.66;38.70;99947.53;5043186;28;20491;-79
2023/01/13 09:19:22;;;;;;;3.97;2.00;;;;;;;21.55;39.22;99950.88;5028084;28;20021;-77
2023/01/13 09:21:48;;;;;;;5.00;2.00;;;;;;;21.36;39.50;99964.00;5032957;28;20674;-77
2023/01/13 09:24:13;;;;;;;4.75;1.90;;;;;;;21.20;39.97;99971.59;5040651;28;20043;-77
2023/01/13 09:26:39;;;;;;;4.88;2.10;;;;;;;21.19;39.98;99977.91;5035638;28;20040;-77
2023/01/13 09:29:04;;;;;;;5.55;1.90;;;;;;;21.16;40.09;99994.19;5036695;28;20792;-79
2023/01/13 09:31:33;;;;;;;7.03;2.40;;;;;;;21.01;40.34;99999.75;5044423;28;20049;-78
2023/01/13 09:36:47;;;;;;;7.32;2.15;;;;;;;20.88;40.56;99981.22;5047010;28;20048;-77
2023/01/13 09:39:13;;;;;;;6.65;2.30;;;;;;;20.86;40.82;99992.03;5031986;28;20037;-79
2023/01/13 09:44:44;;;;;;;5.45;2.20;;;;;;;20.81;40.76;99995.25;5035832;28;20083;-78
2023/01/13 09:47:37;;;;;;;7.38;2.45;;;;;;;20.85;40.73;99993.06;5035596;28;21140;-79
2023/01/13 09:50:30;;;;;;;5.20;1.92;;;;;;;20.84;40.68;99996.72;5031577;28;20048;-79
2023/01/13 09:52:56;;;;;;;6.47;2.42;;;;;;;20.65;40.71;99990.44;5049100;28;20119;-79
2023/01/13 09:55:30;;;;;;;4.95;2.22;;;;;;;20.67;40.90;99979.66;5039767;28;20169;-80
2023/01/13 09:57:56;;;;;;;6.13;2.05;;;;;;;20.74;40.87;99986.53;5040661;28;20087;-76
2023/01/13 10:00:24;;;;;;;5.78;2.00;;;;;;;20.76;40.83;99989.78;5031340;28;20029;-79
2023/01/13 10:03:12;;;;;;;5.57;1.98;;;;;;;20.80;40.79;99992.84;5032153;28;20033;-79
2023/01/13 10:05:44;;;;;;;5.85;2.03;;;;;;;20.78;40.78;100000.97;5027143;28;20518;-78
2023/01/13 10:08:21;;;;;;;4.45;1.77;;;;;;;20.76;40.91;99997.72;5030889;28;20045;-77
2023/01/13 10:10:57;;;;;;;6.78;2.45;;;;;;;20.78;40.77;99997.53;5030929;28;20502;-77
2023/01/13 10:13:30;;;;;;;5.88;2.55;;;;;;;20.71;40.92;100013.41;5036806;28;20037;-78
2023/01/13 10:16:11;;;;;;;6.00;2.30;;;;;;;20.77;40.86;100023.16;5034944;28;20043;-79
2023/01/13 10:18:58;;;;;;;4.53;2.03;;;;;;;20.70;41.03;100034.78;5033719;28;20111;-77
2023/01/13 10:21:23;;;;;;;6.70;1.90;;;;;;;20.67;40.94;100025.44;5039853;28;20045;-77
2023/01/13 10:24:00;;;;;;;6.82;2.50;;;;;;;20.65;41.00;100030.09;5035890;28;20128;-77
2023/01/13 10:26:43;;;;;;;7.60;2.50;;;;;;;20.66;40.78;100030.94;5043136;28;20723;-76
2023/01/13 10:29:24;;;;;;;4.90;2.28;;;;;;;20.66;40.99;100049.44;5035950;28;20043;-77
2023/01/13 10:31:51;;;;;;;5.18;1.85;;;;;;;20.62;41.07;100029.69;5048439;28;20048;-77
2023/01/13 10:34:16;;;;;;;5.85;2.08;;;;;;;20.59;40.98;100022.97;5034657;28;20056;-77
2023/01/13 10:37:06;;;;;;;6.38;2.28;;;;;;;20.60;41.06;100047.59;5025020;28;20419;-77
2023/01/13 10:39:41;;;;;;;5.88;2.08;;;;;;;20.61;40.93;100030.69;5028868;28;20048;-77
2023/01/13 10:42:20;;;;;;;6.10;2.08;;;;;;;20.59;40.95;100025.63;5034884;28;20120;-77
2023/01/13 10:44:47;;;;;;;4.07;1.80;;;;;;;20.61;41.04;100038.63;5034288;28;20032;-77
2023/01/13 10:47:26;;;;;;;4.28;2.00;;;;;;;20.48;41.02;100029.69;5031909;28;20719;-78
2023/01/13 10:50:14;;;;;;;6.05;2.10;;;;;;;20.51;41.12;100031.13;5039454;28;20657;-78
2023/01/13 10:53:08;;;;;;;7.30;2.47;;;;;;;20.53;41.02;100034.38;5037514;28;20566;-77
2023/01/13 10:55:37;;;;;;;4.57;2.00;;;;;;;20.49;41.13;100043.75;5038168;28;20102;-78
2023/01/13 10:58:16;;;;;;;7.38;2.08;;;;;;;20.48;41.18;100040.28;5044822;28;20562;-77
2023/01/13 11:00:42;;;;;;;6.70;2.53;;;;;;;20.42;41.13;100025.19;5036508;28;20040;-77
2023/01/13 11:03:36;;;;;;;5.90;2.47;;;;;;;20.46;41.27;100044.94;5029260;28;20106;-77
2023/01/13 11:06:02;;;;;;;7.60;2.45;;;;;;;20.40;40.92;100015.81;5042062;28;20388;-77
2023/01/13 11:08:38;;;;;;;5.10;2.10;;;;;;;20.39;41.18;100038.00;5037999;28;20041;-77
2023/01/13 11:11:22;;;;;;;7.25;2.33;;;;;;;20.41;41.30;100035.97;5045366;28;20048;-77
2023/01/13 11:16:39;;;;;;;5.40;2.40;;;;;;;20.44;41.13;100039.03;5035544;28;20041;-78
2023/01/13 11:19:12;;;;;;;;;;;;;;;20.61;40.78;100044.75;5032060;28;20039;-78
2023/01/13 11:22:03;;;;;;;6.43;2.40;;;;;;;21.02;39.73;100049.00;5028844;28;19924;-76
2023/01/13 11:24:38;;;;;;;;;;;;;;;21.42;38.89;100045.28;5028870;28;20037;-78
2023/01/13 11:27:09;;;;;;;6.45;2.40;;;;;;;21.28;39.40;100056.91;5034453;28;19921;-78
2023/01/13 11:30:08;;;;;;;5.90;2.30;;;;;;;21.21;39.47;100061.38;5028922;28;20048;-79
2023/01/13 11:32:39;;;;;;;6.10;2.30;;;;;;;21.10;39.44;100060.19;5028040;28;20091;-78
2023/01/13 11:35:17;;;;;;;5.82;2.13;;;;;;;20.89;40.01;100065.72;5029118;28;20200;-78
2023/01/13 11:37:49;;;;;;;6.45;1.83;;;;;;;20.85;40.14;100075.09;5029534;28;20719;-78
2023/01/13 11:40:29;;;;;;;5.65;2.33;;;;;;;20.70;40.58;100077.13;5032559;28;20473;-78
2023/01/13 11:43:01;;;;;;;5.05;2.10;;;;;;;20.60;40.53;100056.34;5034302;28;20041;-79
2023/01/13 11:45:42;;;;;;;6.22;2.17;;;;;;;20.66;40.49;100079.34;5028573;28;20049;-80
2023/01/13 11:48:14;;;;;;;5.20;1.83;;;;;;;20.66;40.44;100066.13;5033912;28;20033;-80
2023/01/13 11:50:49;;;;;;;6.35;2.03;;;;;;;20.65;40.53;100077.72;5031236;28;20120;-80
2023/01/13 11:53:51;;;;;;;7.65;2.35;;;;;;;20.67;40.52;100072.22;5031054;28;20379;-80
2023/01/13 11:56:40;;;;;;;4.25;1.67;;;;;;;20.66;40.62;100082.00;5026986;28;20124;-79
2023/01/13 11:59:24;;;;;;;7.22;2.25;;;;;;;20.65;40.53;100084.84;5037133;28;20037;-80
2023/01/13 12:02:10;;;;;;;7.57;2.75;;;;;;;20.65;40.60;100077.72;5024876;28;20112;-80
2023/01/13 12:04:54;;;;;;;6.57;2.30;;;;;;;20.63;40.58;100094.78;5027540;28;20033;-80
2023/01/13 12:07:26;;;;;;;4.10;1.60;;;;;;;20.63;40.51;100090.31;5027440;28;20025;-80
2023/01/13 12:10:05;;;;;;;5.30;2.10;;;;;;;20.53;40.72;100095.22;5026143;28;20065;-79
2023/01/13 12:12:43;;;;;;;6.47;2.50;;;;;;;20.59;40.65;100098.88;5030583;28;20028;-80
2023/01/13 12:15:23;;;;;;;5.93;2.17;;;;;;;20.50;40.59;100112.28;5036993;28;20493;-79
2023/01/13 12:18:15;;;;;;;7.18;2.50;;;;;;;20.52;40.53;100104.97;5030375;28;20094;-80
2023/01/13 12:20:48;;;;;;;3.40;1.80;;;;;;;20.59;40.52;100097.03;5028147;28;20141;-80
2023/01/13 12:23:27;;;;;;;5.28;2.08;;;;;;;20.57;40.70;100106.19;5025964;28;20511;-80
2023/01/13 12:25:58;;;;;;;7.68;2.90;;;;;;;20.54;40.57;100101.31;5034835;28;20044;-80
2023/01/13 12:28:48;;;;;;;5.55;2.22;;;;;;;20.56;40.39;100105.38;5029768;28;20115;-80
2023/01/13 12:31:17;;;;;;;7.00;2.05;;;;;;;20.58;40.55;100100.69;5027944;28;20064;-80
2023/01/13 12:33:52;;;;;;;4.07;2.10;;;;;;;20.51;40.54;100110.47;5031743;28;20033;-78